Time;durP1;ratioP1;P1;durP2;ratioP2;P2;SDS_P1;SDS_P2;PMS_P1;PMS_P2;Temp;Humidity;BMP_temperature;BMP_pressure;BME280_temperature;BME280_humidity;BME280_pressure;Samples;Min_cycle;Max_cycle;Signal;HPM_P1;HPM_P2
2022/09/25 00:01:11;;;;;;;315.30;144.97;;;;;;;;;;5048489;28;20188;-54
2022/09/25 00:03:38;;;;;;;323.47;148.53;;;;;;;;;;5050805;28;20193;-54
2022/09/25 00:06:06;;;;;;;317.40;146.00;;;;;;;;;;5052379;28;20249;-54
2022/09/25 00:08:32;;;;;;;301.93;138.87;;;;;;;;;;5053159;28;20175;-54
2022/09/25 00:10:58;;;;;;;321.47;147.13;;;;;;;;;;5052425;28;20299;-54
2022/09/25 00:13:25;;;;;;;318.47;146.43;;;;;;;;;;5054750;28;20322;-54
2022/09/25 00:15:56;;;;;;;321.83;147.37;;;;;;;;;;5071773;28;20199;-54
2022/09/25 00:21:10;;;;;;;325.67;148.50;;;;;;;;;;5039949;28;20231;-54
2022/09/25 00:23:36;;;;;;;311.80;145.17;;;;;;;;;;5044453;28;20723;-54
2022/09/25 00:26:04;;;;;;;316.27;145.00;;;;;;;;;;5052217;28;20207;-54
2022/09/25 00:28:30;;;;;;;307.53;140.07;;;;;;;;;;5052735;28;20207;-54
2022/09/25 00:30:57;;;;;;;322.60;146.10;;;;;;;;;;5051576;28;20176;-54
2022/09/25 00:33:23;;;;;;;316.63;145.00;;;;;;;;;;5046400;28;20228;-54
2022/09/25 00:35:49;;;;;;;314.73;143.00;;;;;;;;;;5051553;28;20199;-54
2022/09/25 00:38:15;;;;;;;319.90;144.83;;;;;;;;;;5052480;28;20535;-54
2022/09/25 00:40:41;;;;;;;318.63;145.83;;;;;;;;;;5051817;28;20334;-54
2022/09/25 00:43:33;;;;;;;326.43;148.27;;;;;;;;;;5052109;28;20648;-54
2022/09/25 00:45:59;;;;;;;312.97;141.23;;;;;;;;;;5054583;28;20249;-54
2022/09/25 00:48:25;;;;;;;316.23;146.23;;;;;;;;;;5052089;28;20199;-54
2022/09/25 00:50:53;;;;;;;328.80;149.00;;;;;;;;;;5043017;28;20219;-54
2022/09/25 00:53:25;;;;;;;330.87;150.17;;;;;;;;;;5052091;28;20190;-54
2022/09/25 00:55:51;;;;;;;316.77;145.67;;;;;;;;;;5051933;28;20202;-54
2022/09/25 00:58:20;;;;;;;308.97;142.13;;;;;;;;;;5051889;28;20632;-54
2022/09/25 01:00:46;;;;;;;319.63;147.43;;;;;;;;;;5051958;28;20560;-54
2022/09/25 01:03:12;;;;;;;311.23;144.63;;;;;;;;;;5044615;28;20182;-54
2022/09/25 01:05:41;;;;;;;310.53;141.87;;;;;;;;;;5050883;28;20283;-54
2022/09/25 01:08:10;;;;;;;319.87;146.40;;;;;;;;;;5051971;28;20190;-54
2022/09/25 01:10:36;;;;;;;325.73;147.07;;;;;;;;;;5051700;28;20663;-54
2022/09/25 01:13:02;;;;;;;315.40;142.10;;;;;;;;;;5051802;28;20536;-54
2022/09/25 01:15:36;;;;;;;324.23;147.83;;;;;;;;;;5048443;28;20212;-54
2022/09/25 01:18:09;;;;;;;317.53;144.53;;;;;;;;;;5034352;28;20473;-54
2022/09/25 01:20:47;;;;;;;328.23;149.23;;;;;;;;;;5052059;28;20665;-54
2022/09/25 01:23:16;;;;;;;317.10;145.30;;;;;;;;;;5049990;28;20202;-54
2022/09/25 01:25:55;;;;;;;319.80;144.23;;;;;;;;;;5051528;28;20253;-54
2022/09/25 01:28:24;;;;;;;325.23;146.53;;;;;;;;;;5041256;28;20600;-54
2022/09/25 01:30:52;;;;;;;316.83;145.93;;;;;;;;;;5051253;28;20667;-54
2022/09/25 01:33:23;;;;;;;319.83;145.90;;;;;;;;;;5051497;28;20175;-54
2022/09/25 01:35:51;;;;;;;322.97;147.20;;;;;;;;;;5051184;28;20512;-54
2022/09/25 01:38:34;;;;;;;312.13;142.40;;;;;;;;;;5051277;28;20184;-54
2022/09/25 01:41:04;;;;;;;313.93;142.80;;;;;;;;;;5050811;28;20183;-54
2022/09/25 01:43:30;;;;;;;326.60;148.47;;;;;;;;;;5051489;28;20675;-54
2022/09/25 01:46:00;;;;;;;318.13;146.37;;;;;;;;;;5041475;28;20234;-54
2022/09/25 01:48:26;;;;;;;312.37;143.53;;;;;;;;;;5051461;28;20656;-54
2022/09/25 01:50:52;;;;;;;303.40;140.90;;;;;;;;;;5050628;28;20335;-54
2022/09/25 01:53:24;;;;;;;315.37;145.17;;;;;;;;;;5050710;28;20183;-54
2022/09/25 01:55:54;;;;;;;320.90;147.67;;;;;;;;;;5050737;28;20210;-54
2022/09/25 01:58:34;;;;;;;318.20;143.60;;;;;;;;;;5051261;28;20180;-54
2022/09/25 02:01:04;;;;;;;319.90;146.70;;;;;;;;;;5056285;28;20191;-54
2022/09/25 02:03:34;;;;;;;328.43;148.67;;;;;;;;;;5050725;28;20571;-53
2022/09/25 02:06:01;;;;;;;324.47;147.50;;;;;;;;;;5050841;28;20207;-54
2022/09/25 02:08:42;;;;;;;309.90;141.07;;;;;;;;;;5054854;28;20265;-54
2022/09/25 02:11:08;;;;;;;319.20;145.53;;;;;;;;;;5056056;28;20188;-54
2022/09/25 02:13:40;;;;;;;324.13;146.87;;;;;;;;;;5050571;28;20183;-54
2022/09/25 02:16:15;;;;;;;307.73;141.53;;;;;;;;;;5047925;28;20204;-54
2022/09/25 02:21:39;;;;;;;331.33;150.23;;;;;;;;;;5050051;28;20218;-54
2022/09/25 02:24:11;;;;;;;314.70;142.30;;;;;;;;;;5050241;28;20238;-54
2022/09/25 02:26:37;;;;;;;319.60;143.47;;;;;;;;;;5050509;28;20260;-54
2022/09/25 02:29:04;;;;;;;318.90;143.20;;;;;;;;;;5044848;28;20190;-54
2022/09/25 02:31:39;;;;;;;317.63;146.07;;;;;;;;;;5044490;28;20196;-54
2022/09/25 02:34:05;;;;;;;310.73;141.73;;;;;;;;;;5050072;28;20178;-54
2022/09/25 02:36:32;;;;;;;317.40;144.80;;;;;;;;;;5050119;28;20590;-54
2022/09/25 02:38:59;;;;;;;311.93;142.67;;;;;;;;;;5050107;28;20172;-54
2022/09/25 02:41:43;;;;;;;324.37;147.43;;;;;;;;;;5049768;28;20179;-54
2022/09/25 02:44:15;;;;;;;319.77;145.13;;;;;;;;;;5050097;28;20628;-54
2022/09/25 02:46:50;;;;;;;320.07;145.17;;;;;;;;;;5050362;28;20203;-54
2022/09/25 02:49:31;;;;;;;327.77;147.00;;;;;;;;;;5047751;28;20685;-54
2022/09/25 02:51:57;;;;;;;324.40;147.43;;;;;;;;;;5049433;28;20176;-54
2022/09/25 02:54:38;;;;;;;303.00;137.87;;;;;;;;;;5047548;28;20199;-54
2022/09/25 02:57:07;;;;;;;329.47;148.13;;;;;;;;;;5049956;28;20244;-54
2022/09/25 02:59:35;;;;;;;325.27;147.93;;;;;;;;;;5051560;28;20190;-54
2022/09/25 03:02:02;;;;;;;321.43;146.67;;;;;;;;;;5043974;28;20179;-54
2022/09/25 03:04:28;;;;;;;314.03;142.37;;;;;;;;;;5049468;28;20203;-54
2022/09/25 03:06:56;;;;;;;295.23;134.83;;;;;;;;;;5049293;28;20203;-54
2022/09/25 03:09:22;;;;;;;318.23;144.83;;;;;;;;;;5049858;28;20190;-54
2022/09/25 03:11:48;;;;;;;314.63;144.17;;;;;;;;;;5050391;28;20269;-54
2022/09/25 03:14:14;;;;;;;322.40;143.80;;;;;;;;;;5057482;28;20233;-54
2022/09/25 03:16:42;;;;;;;329.87;149.57;;;;;;;;;;5055193;28;20188;-54
2022/09/25 03:19:08;;;;;;;316.33;144.00;;;;;;;;;;5047196;28;20187;-54
2022/09/25 03:21:34;;;;;;;313.03;143.47;;;;;;;;;;5036339;28;20180;-54
2022/09/25 03:24:01;;;;;;;299.60;137.27;;;;;;;;;;5049121;28;20661;-54
2022/09/25 03:26:27;;;;;;;306.97;139.53;;;;;;;;;;5049126;28;20231;-54
2022/09/25 03:28:53;;;;;;;306.90;140.10;;;;;;;;;;5049327;28;20184;-54
2022/09/25 03:31:19;;;;;;;303.90;138.80;;;;;;;;;;5049019;28;20172;-54
2022/09/25 03:33:46;;;;;;;322.13;145.93;;;;;;;;;;5049261;28;20187;-54
2022/09/25 03:36:17;;;;;;;325.13;148.10;;;;;;;;;;5049206;28;20298;-54
2022/09/25 03:38:44;;;;;;;321.40;146.03;;;;;;;;;;5042202;28;20207;-54
2022/09/25 03:41:11;;;;;;;314.67;142.83;;;;;;;;;;5049060;28;20212;-54
2022/09/25 03:43:37;;;;;;;317.03;144.43;;;;;;;;;;5049036;28;20180;-54
2022/09/25 03:46:04;;;;;;;328.37;149.03;;;;;;;;;;5047422;28;20217;-54
2022/09/25 03:48:30;;;;;;;318.83;144.93;;;;;;;;;;5049728;28;20175;-54
2022/09/25 03:50:56;;;;;;;310.23;142.97;;;;;;;;;;5031103;28;20176;-54
2022/09/25 03:53:24;;;;;;;317.83;143.53;;;;;;;;;;5049048;28;20263;-54
2022/09/25 03:55:50;;;;;;;330.87;150.00;;;;;;;;;;5048607;28;20249;-54
2022/09/25 03:58:16;;;;;;;328.67;149.63;;;;;;;;;;5049574;28;20164;-54
2022/09/25 04:00:42;;;;;;;309.50;142.07;;;;;;;;;;5048859;28;20183;-54
2022/09/25 04:03:08;;;;;;;326.50;149.07;;;;;;;;;;5049132;28;20291;-54
2022/09/25 04:05:34;;;;;;;319.43;145.77;;;;;;;;;;5043987;28;20302;-54
2022/09/25 04:08:00;;;;;;;312.70;142.70;;;;;;;;;;5049264;28;20639;-54
2022/09/25 04:10:27;;;;;;;330.53;148.57;;;;;;;;;;5048062;28;20262;-54
2022/09/25 04:12:54;;;;;;;318.43;141.97;;;;;;;;;;5048963;28;20180;-54
2022/09/25 04:15:23;;;;;;;318.70;145.40;;;;;;;;;;5049055;28;20199;-54
2022/09/25 04:17:51;;;;;;;320.47;144.53;;;;;;;;;;5048738;28;20188;-54
2022/09/25 04:20:17;;;;;;;323.27;144.73;;;;;;;;;;5037177;28;20188;-54
2022/09/25 04:22:43;;;;;;;314.93;142.47;;;;;;;;;;5048549;28;20188;-54
2022/09/25 04:25:09;;;;;;;318.27;142.70;;;;;;;;;;5048709;28;20294;-54
2022/09/25 04:27:35;;;;;;;317.37;142.43;;;;;;;;;;5048896;28;20203;-54
2022/09/25 04:30:02;;;;;;;316.60;143.03;;;;;;;;;;5048703;28;20191;-54
2022/09/25 04:35:12;;;;;;;304.90;137.67;;;;;;;;;;5043722;28;20292;-54
2022/09/25 04:37:38;;;;;;;342.67;150.87;;;;;;;;;;5048145;28;20215;-54
2022/09/25 04:40:04;;;;;;;317.87;142.83;;;;;;;;;;5046071;28;20187;-54
2022/09/25 04:42:30;;;;;;;315.00;144.20;;;;;;;;;;5052814;28;20194;-54
2022/09/25 04:44:56;;;;;;;312.77;142.27;;;;;;;;;;5041690;28;20302;-54
2022/09/25 04:47:23;;;;;;;321.10;143.67;;;;;;;;;;5052227;28;20203;-54
2022/09/25 04:49:49;;;;;;;322.57;143.93;;;;;;;;;;5051693;28;20497;-54
2022/09/25 04:52:16;;;;;;;319.53;142.47;;;;;;;;;;5051884;28;20168;-54
2022/09/25 04:54:42;;;;;;;309.47;138.23;;;;;;;;;;5051825;28;20249;-54
2022/09/25 04:57:18;;;;;;;314.27;140.87;;;;;;;;;;5052227;28;20624;-54
2022/09/25 04:59:44;;;;;;;330.07;147.40;;;;;;;;;;5040421;28;20180;-54
2022/09/25 05:02:10;;;;;;;308.33;137.87;;;;;;;;;;5051705;28;20236;-54
2022/09/25 05:04:36;;;;;;;314.33;139.80;;;;;;;;;;5051855;28;20236;-54
2022/09/25 05:07:02;;;;;;;323.73;143.07;;;;;;;;;;5051167;28;20317;-54
2022/09/25 05:09:28;;;;;;;316.60;140.43;;;;;;;;;;5051742;28;20187;-54
2022/09/25 05:11:54;;;;;;;327.97;144.63;;;;;;;;;;5051559;28;20192;-54
2022/09/25 05:14:20;;;;;;;309.23;138.67;;;;;;;;;;5051576;28;20737;-54
2022/09/25 05:16:46;;;;;;;312.97;142.47;;;;;;;;;;5051765;28;20207;-54
2022/09/25 05:19:13;;;;;;;320.10;144.17;;;;;;;;;;5051746;28;20266;-54
2022/09/25 05:21:39;;;;;;;323.80;143.53;;;;;;;;;;5051380;28;20192;-54
2022/09/25 05:24:07;;;;;;;319.60;141.33;;;;;;;;;;5051654;28;20250;-54
2022/09/25 05:26:33;;;;;;;312.43;139.83;;;;;;;;;;5051908;28;20207;-54
2022/09/25 05:29:00;;;;;;;308.97;139.87;;;;;;;;;;5051793;28;20203;-54
2022/09/25 05:31:26;;;;;;;309.13;139.40;;;;;;;;;;5051559;28;20587;-54
2022/09/25 05:33:52;;;;;;;315.67;141.80;;;;;;;;;;5039146;28;20181;-54
2022/09/25 05:36:19;;;;;;;314.67;141.57;;;;;;;;;;5050867;28;20422;-54
2022/09/25 05:38:45;;;;;;;320.43;144.03;;;;;;;;;;5049850;28;20509;-54
2022/09/25 05:41:11;;;;;;;326.40;147.33;;;;;;;;;;5051213;28;20234;-54
2022/09/25 05:43:39;;;;;;;318.77;142.80;;;;;;;;;;5046024;28;20668;-54
2022/09/25 05:46:05;;;;;;;307.03;139.00;;;;;;;;;;5061332;28;20235;-54
2022/09/25 05:48:31;;;;;;;318.13;141.83;;;;;;;;;;5051932;28;20176;-54
2022/09/25 05:50:57;;;;;;;351.17;154.10;;;;;;;;;;5049026;28;20184;-54
2022/09/25 05:53:23;;;;;;;418.03;172.60;;;;;;;;;;5034139;28;20223;-55
2022/09/25 05:55:54;;;;;;;409.30;165.60;;;;;;;;;;5032143;28;20249;-55
2022/09/25 05:58:20;;;;;;;365.40;154.77;;;;;;;;;;5035855;28;20215;-55
2022/09/25 06:00:47;;;;;;;430.13;175.93;;;;;;;;;;5037062;28;20180;-55
2022/09/25 06:03:14;;;;;;;366.77;154.63;;;;;;;;;;5034357;28;20180;-55
2022/09/25 06:05:40;;;;;;;365.67;161.80;;;;;;;;;;5041077;28;20250;-55
2022/09/25 06:08:06;;;;;;;360.97;158.60;;;;;;;;;;5040626;28;20211;-55
2022/09/25 06:10:32;;;;;;;373.80;164.17;;;;;;;;;;5039493;28;20568;-55
2022/09/25 06:12:59;;;;;;;359.30;161.17;;;;;;;;;;5038338;28;20593;-56
2022/09/25 06:15:26;;;;;;;399.03;177.67;;;;;;;;;;5032970;28;20804;-55
2022/09/25 06:17:53;;;;;;;341.47;150.40;;;;;;;;;;5037666;28;20187;-56
2022/09/25 06:20:21;;;;;;;354.57;152.80;;;;;;;;;;5032737;28;20188;-55
2022/09/25 06:22:53;;;;;;;406.23;169.70;;;;;;;;;;5023381;28;20878;-55
2022/09/25 06:25:20;;;;;;;377.33;158.87;;;;;;;;;;5032882;28;20223;-55
2022/09/25 06:27:46;;;;;;;391.67;166.87;;;;;;;;;;5013216;28;20623;-55
2022/09/25 06:30:12;;;;;;;355.73;162.43;;;;;;;;;;5035300;28;20318;-55
2022/09/25 06:32:38;;;;;;;367.07;166.20;;;;;;;;;;5030703;28;20183;-55
2022/09/25 06:35:05;;;;;;;400.97;180.90;;;;;;;;;;5029211;28;20238;-55
2022/09/25 06:37:31;;;;;;;456.13;205.67;;;;;;;;;;5030680;28;20188;-55
2022/09/25 06:39:57;;;;;;;392.20;177.23;;;;;;;;;;5021767;28;20590;-55
2022/09/25 06:42:23;;;;;;;414.40;184.77;;;;;;;;;;5023756;28;20188;-55
2022/09/25 06:44:49;;;;;;;401.93;178.80;;;;;;;;;;5025022;28;20227;-55
2022/09/25 06:47:15;;;;;;;400.17;180.83;;;;;;;;;;5020066;28;20200;-55
2022/09/25 06:49:41;;;;;;;472.87;214.43;;;;;;;;;;5027208;28;22200;-55
2022/09/25 06:52:07;;;;;;;399.70;179.97;;;;;;;;;;5022058;28;20480;-55
2022/09/25 06:54:33;;;;;;;398.73;181.73;;;;;;;;;;5026193;28;20297;-55
2022/09/25 06:56:58;;;;;;;373.43;166.03;;;;;;;;;;5027635;28;20431;-55
2022/09/25 06:59:24;;;;;;;376.37;170.13;;;;;;;;;;5037190;28;20184;-55
2022/09/25 07:01:51;;;;;;;409.53;182.20;;;;;;;;;;5025101;28;20203;-55
2022/09/25 07:04:17;;;;;;;423.17;194.47;;;;;;;;;;5028026;28;20223;-55
2022/09/25 07:06:43;;;;;;;461.53;208.47;;;;;;;;;;5024146;28;20211;-55
2022/09/25 07:09:09;;;;;;;350.67;160.27;;;;;;;;;;5031545;28;20635;-55
2022/09/25 07:11:35;;;;;;;366.63;165.70;;;;;;;;;;5029161;28;20498;-55
2022/09/25 07:14:01;;;;;;;388.83;178.77;;;;;;;;;;5026919;28;20594;-55
2022/09/25 07:16:28;;;;;;;384.00;178.93;;;;;;;;;;5034501;28;20229;-55
2022/09/25 07:18:56;;;;;;;420.50;194.00;;;;;;;;;;5025964;28;20324;-55
2022/09/25 07:21:23;;;;;;;386.43;181.20;;;;;;;;;;5027846;28;20215;-55
2022/09/25 07:23:50;;;;;;;368.47;173.37;;;;;;;;;;5038577;28;20194;-57
2022/09/25 07:26:24;;;;;;;402.47;181.27;;;;;;;;;;5036880;28;20669;-56
2022/09/25 07:28:54;;;;;;;409.97;185.13;;;;;;;;;;5029936;28;20191;-57
2022/09/25 07:31:22;;;;;;;401.67;178.83;;;;;;;;;;5033734;28;20181;-56
2022/09/25 07:33:48;;;;;;;407.90;187.03;;;;;;;;;;5027678;28;20648;-57
2022/09/25 07:36:15;;;;;;;360.00;164.77;;;;;;;;;;5031204;28;20299;-57
2022/09/25 07:38:41;;;;;;;378.07;177.37;;;;;;;;;;5035071;28;20321;-57
2022/09/25 07:41:09;;;;;;;382.73;172.27;;;;;;;;;;5029718;28;20188;-57
2022/09/25 07:43:37;;;;;;;389.67;175.57;;;;;;;;;;5023715;28;20210;-55
2022/09/25 07:46:04;;;;;;;349.90;159.80;;;;;;;;;;5033724;28;20206;-54
2022/09/25 07:48:30;;;;;;;347.33;158.80;;;;;;;;;;5042240;28;20191;-54
2022/09/25 07:50:59;;;;;;;323.63;152.47;;;;;;;;;;5044251;28;20191;-53
2022/09/25 07:53:24;;;;;;;355.87;168.87;;;;;;;;;;5043931;28;20191;-54
2022/09/25 07:55:50;;;;;;;328.57;152.03;;;;;;;;;;5041972;28;20207;-54
2022/09/25 07:58:18;;;;;;;354.17;171.50;;;;;;;;;;5041485;28;20270;-53
2022/09/25 08:00:44;;;;;;;399.57;185.07;;;;;;;;;;5033064;28;20670;-53
2022/09/25 08:03:10;;;;;;;463.47;212.93;;;;;;;;;;5016531;28;20175;-54
2022/09/25 08:05:36;;;;;;;460.47;195.63;;;;;;;;;;5029098;28;20208;-55
2022/09/25 08:08:03;;;;;;;402.00;179.43;;;;;;;;;;5030046;28;20211;-55
2022/09/25 08:10:29;;;;;;;355.47;170.63;;;;;;;;;;5039934;28;20215;-55
2022/09/25 08:12:55;;;;;;;381.43;173.13;;;;;;;;;;5030051;28;20655;-55
2022/09/25 08:15:21;;;;;;;425.07;193.90;;;;;;;;;;5019250;28;20211;-55
2022/09/25 08:17:47;;;;;;;475.40;216.10;;;;;;;;;;5018816;28;20183;-55
2022/09/25 08:20:13;;;;;;;429.23;201.53;;;;;;;;;;5020614;28;20994;-55
2022/09/25 08:22:39;;;;;;;469.90;217.80;;;;;;;;;;5021156;28;21377;-55
2022/09/25 08:25:05;;;;;;;424.27;198.57;;;;;;;;;;5031607;28;20203;-55
2022/09/25 08:27:31;;;;;;;395.80;193.10;;;;;;;;;;5033511;28;20887;-54
2022/09/25 08:29:57;;;;;;;395.13;192.83;;;;;;;;;;5035604;28;20218;-54
2022/09/25 08:32:23;;;;;;;362.07;172.83;;;;;;;;;;5035349;28;20184;-54
2022/09/25 08:34:49;;;;;;;403.23;201.40;;;;;;;;;;5039930;28;20207;-54
2022/09/25 08:37:16;;;;;;;363.93;181.57;;;;;;;;;;5040279;28;20242;-54
2022/09/25 08:39:42;;;;;;;392.90;187.80;;;;;;;;;;5038659;28;20187;-54
2022/09/25 08:42:16;;;;;;;341.43;166.90;;;;;;;;;;5042025;28;20183;-54
2022/09/25 08:44:44;;;;;;;363.77;178.50;;;;;;;;;;5044747;28;20239;-54
2022/09/25 08:50:18;;;;;;;356.63;175.13;;;;;;;;;;4988990;28;20707;-54
2022/09/25 08:52:46;;;;;;;357.20;182.43;;;;;;;;;;5046302;28;20271;-54
2022/09/25 08:55:18;;;;;;;342.93;169.50;;;;;;;;;;5046487;28;20206;-54
2022/09/25 08:57:45;;;;;;;341.10;172.33;;;;;;;;;;5047236;28;20191;-54
2022/09/25 09:00:19;;;;;;;356.50;182.03;;;;;;;;;;5048476;28;20184;-54
2022/09/25 09:02:53;;;;;;;394.30;199.97;;;;;;;;;;5045227;28;20473;-54
2022/09/25 09:05:36;;;;;;;353.93;179.77;;;;;;;;;;5045211;28;20218;-54
2022/09/25 09:08:05;;;;;;;338.33;172.80;;;;;;;;;;5046992;28;20197;-54
2022/09/25 09:10:34;;;;;;;364.13;181.83;;;;;;;;;;5047671;28;20206;-54
2022/09/25 09:13:00;;;;;;;361.20;181.70;;;;;;;;;;5047494;28;20290;-54
2022/09/25 09:15:39;;;;;;;398.97;204.37;;;;;;;;;;5040625;28;20265;-54
2022/09/25 09:18:16;;;;;;;362.67;185.70;;;;;;;;;;5043046;28;20209;-54
2022/09/25 09:20:45;;;;;;;362.00;182.27;;;;;;;;;;5040534;28;20267;-54
2022/09/25 09:23:16;;;;;;;354.90;178.70;;;;;;;;;;5045966;28;20338;-54
2022/09/25 09:25:57;;;;;;;331.13;166.23;;;;;;;;;;5043417;28;20610;-54
2022/09/25 09:28:41;;;;;;;343.53;172.97;;;;;;;;;;5049932;28;20289;-54
2022/09/25 09:31:26;;;;;;;339.47;172.23;;;;;;;;;;5048564;28;20184;-54
2022/09/25 09:33:57;;;;;;;346.87;171.67;;;;;;;;;;5046846;28;20721;-54
2022/09/25 09:36:43;;;;;;;349.30;170.83;;;;;;;;;;5044715;28;20175;-54
2022/09/25 09:39:09;;;;;;;343.00;170.37;;;;;;;;;;5048094;28;20278;-54
2022/09/25 09:41:49;;;;;;;342.83;170.40;;;;;;;;;;5049604;28;20254;-54
2022/09/25 09:44:17;;;;;;;330.97;166.67;;;;;;;;;;5047884;28;20214;-54
2022/09/25 09:46:43;;;;;;;366.37;180.27;;;;;;;;;;5042683;28;20371;-54
2022/09/25 09:49:21;;;;;;;344.63;172.17;;;;;;;;;;5048913;28;20233;-54
2022/09/25 09:52:00;;;;;;;343.93;166.77;;;;;;;;;;5048242;28;20184;-54
2022/09/25 09:54:34;;;;;;;343.00;172.23;;;;;;;;;;5045903;28;20588;-54
2022/09/25 09:57:01;;;;;;;341.17;171.90;;;;;;;;;;5046451;28;20221;-54
2022/09/25 09:59:30;;;;;;;319.07;163.30;;;;;;;;;;5044280;28;20923;-54
2022/09/25 10:02:01;;;;;;;353.13;178.67;;;;;;;;;;5046647;28;20214;-55
2022/09/25 10:04:29;;;;;;;363.20;184.43;;;;;;;;;;5039292;28;20809;-54
2022/09/25 10:06:58;;;;;;;404.97;203.27;;;;;;;;;;5034865;28;20218;-54
2022/09/25 10:09:26;;;;;;;355.30;178.37;;;;;;;;;;5040269;28;20648;-54
2022/09/25 10:11:58;;;;;;;341.93;173.07;;;;;;;;;;5046180;28;20191;-55
2022/09/25 10:14:27;;;;;;;339.70;174.60;;;;;;;;;;5047670;28;20207;-55
2022/09/25 10:16:53;;;;;;;365.23;185.10;;;;;;;;;;5039907;28;20188;-55
2022/09/25 10:19:23;;;;;;;342.87;175.73;;;;;;;;;;5041735;28;20197;-55
2022/09/25 10:21:51;;;;;;;351.60;177.97;;;;;;;;;;5043106;28;20195;-55
2022/09/25 10:24:38;;;;;;;349.87;172.93;;;;;;;;;;5046397;28;20599;-55
2022/09/25 10:27:26;;;;;;;335.20;169.90;;;;;;;;;;5043124;28;20289;-55
2022/09/25 10:30:02;;;;;;;370.70;188.60;;;;;;;;;;5044827;28;20175;-55
2022/09/25 10:32:28;;;;;;;360.40;184.70;;;;;;;;;;5043073;28;20191;-54
2022/09/25 10:34:54;;;;;;;415.90;214.20;;;;;;;;;;5034679;28;20592;-56
2022/09/25 10:37:21;;;;;;;438.73;218.87;;;;;;;;;;5026484;28;20259;-57
2022/09/25 10:40:07;;;;;;;388.57;198.97;;;;;;;;;;5034453;28;20200;-52
2022/09/25 10:42:36;;;;;;;420.43;211.20;;;;;;;;;;5032422;28;20184;-52
2022/09/25 10:45:21;;;;;;;354.90;185.97;;;;;;;;;;5028623;28;20200;-53
2022/09/25 10:50:33;;;;;;;448.57;232.50;;;;;;;;;;5028114;28;21277;-53
2022/09/25 10:53:00;;;;;;;373.63;196.10;;;;;;;;;;5040572;28;20249;-52
2022/09/25 10:55:29;;;;;;;365.67;186.73;;;;;;;;;;5040820;28;20195;-53
2022/09/25 10:58:12;;;;;;;377.77;202.23;;;;;;;;;;5037439;28;20201;-52
2022/09/25 11:00:50;;;;;;;409.07;206.53;;;;;;;;;;5028886;28;20183;-53
2022/09/25 11:03:39;;;;;;;408.60;216.97;;;;;;;;;;5021638;28;20202;-52
2022/09/25 11:06:19;;;;;;;373.30;199.37;;;;;;;;;;5025694;28;20207;-52
2022/09/25 11:08:46;;;;;;;349.20;186.43;;;;;;;;;;5032040;28;20187;-52
2022/09/25 11:11:12;;;;;;;349.73;194.17;;;;;;;;;;5032526;28;20187;-56
2022/09/25 11:13:46;;;;;;;329.10;176.50;;;;;;;;;;5044068;28;20180;-55
2022/09/25 11:16:12;;;;;;;309.17;172.30;;;;;;;;;;5047209;28;20555;-55
2022/09/25 11:18:40;;;;;;;351.47;192.60;;;;;;;;;;5042922;28;20339;-55
2022/09/25 11:21:08;;;;;;;341.53;186.33;;;;;;;;;;5047694;28;20698;-55
2022/09/25 11:23:39;;;;;;;355.00;194.07;;;;;;;;;;5045430;28;20280;-55
2022/09/25 11:26:05;;;;;;;336.33;189.33;;;;;;;;;;5046586;28;20203;-55
2022/09/25 11:28:34;;;;;;;364.60;205.10;;;;;;;;;;5045515;28;20191;-55
2022/09/25 11:31:13;;;;;;;327.73;189.63;;;;;;;;;;5047041;28;20252;-55
2022/09/25 11:33:41;;;;;;;353.83;200.67;;;;;;;;;;5046790;28;20183;-55
2022/09/25 11:36:15;;;;;;;356.93;200.97;;;;;;;;;;5042420;28;20242;-55
2022/09/25 11:41:40;;;;;;;344.13;195.90;;;;;;;;;;5035047;28;20610;-55
2022/09/25 11:44:09;;;;;;;317.83;185.30;;;;;;;;;;5047057;28;20180;-55
2022/09/25 11:46:49;;;;;;;343.77;195.03;;;;;;;;;;5040185;28;20207;-55
2022/09/25 11:49:14;;;;;;;361.10;203.77;;;;;;;;;;5047238;28;20179;-55
2022/09/25 11:51:56;;;;;;;333.60;179.20;;;;;;;;;;5049766;28;20327;-55
2022/09/25 11:54:40;;;;;;;350.17;194.30;;;;;;;;;;5047791;28;20200;-55
2022/09/25 11:57:30;;;;;;;340.47;189.77;;;;;;;;;;5051382;28;20183;-55
2022/09/25 11:59:58;;;;;;;334.10;187.57;;;;;;;;;;5003931;28;20199;-55
2022/09/25 12:02:39;;;;;;;332.30;184.30;;;;;;;;;;5050790;28;20679;-55
2022/09/25 12:05:32;;;;;;;324.57;183.47;;;;;;;;;;5044249;28;20205;-55
2022/09/25 12:08:16;;;;;;;372.50;209.47;;;;;;;;;;5048527;28;20291;-55
2022/09/25 12:10:54;;;;;;;339.83;193.57;;;;;;;;;;5047836;28;20697;-55
2022/09/25 12:13:39;;;;;;;337.30;194.43;;;;;;;;;;5051039;28;20577;-55
2022/09/25 12:16:07;;;;;;;359.10;202.23;;;;;;;;;;5046688;28;20203;-55
2022/09/25 12:18:41;;;;;;;337.97;194.87;;;;;;;;;;5049758;28;20222;-55
2022/09/25 12:21:11;;;;;;;331.50;192.80;;;;;;;;;;5043894;28;20182;-55
2022/09/25 12:23:50;;;;;;;341.40;197.13;;;;;;;;;;5049867;28;20708;-56
2022/09/25 12:26:26;;;;;;;334.20;197.67;;;;;;;;;;5045873;28;20211;-55
2022/09/25 12:28:51;;;;;;;335.63;188.80;;;;;;;;;;5050213;28;20538;-56
2022/09/25 12:31:40;;;;;;;321.63;186.57;;;;;;;;;;5050166;28;20175;-56
2022/09/25 12:34:25;;;;;;;332.07;201.73;;;;;;;;;;5049898;28;20182;-55
2022/09/25 12:37:12;;;;;;;332.47;192.67;;;;;;;;;;5049608;28;20191;-55
2022/09/25 12:39:40;;;;;;;335.90;203.90;;;;;;;;;;5046710;28;20211;-55
2022/09/25 12:42:22;;;;;;;335.00;200.20;;;;;;;;;;5049316;28;20192;-55
2022/09/25 12:44:54;;;;;;;335.53;192.37;;;;;;;;;;5046668;28;20207;-55
2022/09/25 12:47:32;;;;;;;342.93;196.97;;;;;;;;;;5040732;28;20211;-56
2022/09/25 12:50:09;;;;;;;332.07;189.30;;;;;;;;;;5048404;28;20168;-55
2022/09/25 12:52:38;;;;;;;330.27;185.60;;;;;;;;;;5049551;28;20745;-55
2022/09/25 12:55:13;;;;;;;323.80;181.63;;;;;;;;;;5048549;28;20226;-55
2022/09/25 12:57:44;;;;;;;330.07;187.13;;;;;;;;;;5046887;28;20189;-55
2022/09/25 13:00:13;;;;;;;342.53;198.50;;;;;;;;;;5044395;28;20179;-55
2022/09/25 13:02:54;;;;;;;339.53;189.27;;;;;;;;;;5048242;28;20325;-55
2022/09/25 13:05:36;;;;;;;313.57;176.07;;;;;;;;;;5043001;28;20692;-55
2022/09/25 13:08:22;;;;;;;324.50;181.90;;;;;;;;;;5045098;28;20724;-55
2022/09/25 13:10:57;;;;;;;363.63;200.27;;;;;;;;;;5044621;28;20265;-55
2022/09/25 13:13:25;;;;;;;316.20;174.37;;;;;;;;;;5048411;28;20167;-55
2022/09/25 13:15:55;;;;;;;318.17;175.53;;;;;;;;;;5049165;28;20290;-55
2022/09/25 13:18:22;;;;;;;349.63;192.23;;;;;;;;;;5047534;28;20194;-55
2022/09/25 13:20:50;;;;;;;321.37;177.73;;;;;;;;;;5048025;28;20203;-55
2022/09/25 13:23:28;;;;;;;321.30;182.33;;;;;;;;;;5049349;28;20261;-55
2022/09/25 13:26:15;;;;;;;318.33;183.90;;;;;;;;;;5043248;28;20290;-55
2022/09/25 13:28:48;;;;;;;303.20;178.33;;;;;;;;;;5044517;28;20191;-55
2022/09/25 13:31:22;;;;;;;318.20;193.30;;;;;;;;;;5049047;28;20691;-55
2022/09/25 13:33:50;;;;;;;332.00;212.67;;;;;;;;;;5049106;28;20187;-56
2022/09/25 13:36:22;;;;;;;335.77;225.97;;;;;;;;;;5048670;28;20282;-53
2022/09/25 13:41:34;;;;;;;341.45;235.90;;;;;;;;;;5047055;28;20233;-56
2022/09/25 13:44:24;;;;;;;355.17;240.82;;;;;;;;;;5048960;28;20588;-55
2022/09/25 13:46:50;;;;;;;;;;;;;;;;;;5009300;28;20215;-56
2022/09/25 13:49:33;;;;;;;371.45;256.90;;;;;;;;;;5049064;28;20220;-56
2022/09/25 13:51:59;;;;;;;357.38;244.15;;;;;;;;;;5029110;28;20210;-55
2022/09/25 13:54:26;;;;;;;375.85;258.20;;;;;;;;;;5046961;28;20192;-55
2022/09/25 13:56:53;;;;;;;371.85;253.80;;;;;;;;;;5043676;28;20261;-55
2022/09/25 13:59:20;;;;;;;367.77;246.15;;;;;;;;;;5042697;28;20184;-55
2022/09/25 14:01:47;;;;;;;359.80;236.32;;;;;;;;;;5040762;28;20508;-55
2022/09/25 14:04:13;;;;;;;366.60;232.65;;;;;;;;;;5040964;28;20618;-54
2022/09/25 14:06:41;;;;;;;383.25;257.45;;;;;;;;;;5040265;28;20245;-55
2022/09/25 14:09:33;;;;;;;382.80;240.27;;;;;;;;;;5042517;28;20263;-55
2022/09/25 14:11:59;;;;;;;392.25;250.13;;;;;;;;;;5016803;28;20212;-55
2022/09/25 14:14:34;;;;;;;366.77;231.55;;;;;;;;;;5040534;28;20242;-55
2022/09/25 14:17:00;;;;;;;362.30;226.05;;;;;;;;;;5043604;28;20190;-55
2022/09/25 14:19:26;;;;;;;;;;;;;;;;;;5045110;28;20517;-55
2022/09/25 14:21:52;;;;;;;;;;;;;;;;;;5046897;28;19917;-55
2022/09/25 14:24:19;;;;;;;;;;;;;;;;;;5036387;28;20415;-55
2022/09/25 14:26:45;;;;;;;358.30;211.55;;;;;;;;;;5033773;28;20377;-55
2022/09/25 14:29:11;;;;;;;;;;;;;;;;;;5039362;28;20029;-55